createdAt,value
2017-12-27T00:07:52.085Z,25.97
2017-12-27T00:23:56.883Z,12.60
2017-12-27T00:26:31.606Z,9.20
2017-12-27T00:29:06.370Z,10.23
2017-12-27T00:31:34.624Z,11.03
2017-12-27T00:34:02.938Z,11.00
2017-12-27T00:36:31.249Z,9.40
2017-12-27T00:38:59.565Z,12.63
2017-12-27T00:41:27.830Z,11.27
2017-12-27T00:43:56.544Z,11.97
2017-12-27T00:46:24.842Z,13.77
2017-12-27T00:48:53.127Z,11.47
2017-12-27T00:51:21.431Z,12.67
2017-12-27T00:53:50.463Z,10.93
2017-12-27T00:56:18.760Z,14.70
2017-12-27T00:58:47.036Z,7.47
2017-12-27T01:01:15.584Z,9.33
2017-12-27T01:03:44.613Z,10.33
2017-12-27T01:06:12.872Z,12.30
2017-12-27T01:08:41.191Z,11.80
2017-12-27T01:11:09.460Z,10.80
2017-12-27T01:13:37.781Z,13.90
2017-12-27T01:16:06.821Z,8.60
2017-12-27T01:18:35.523Z,12.20
2017-12-27T01:21:03.778Z,11.50
2017-12-27T01:23:32.051Z,12.87
2017-12-27T01:26:01.106Z,13.10
2017-12-27T01:28:30.170Z,11.50
2017-12-27T01:30:58.448Z,9.77
2017-12-27T01:33:26.714Z,11.43
2017-12-27T01:35:55.590Z,12.33
2017-12-27T01:38:23.877Z,9.57
2017-12-27T01:40:52.136Z,11.83
2017-12-27T01:43:20.438Z,10.87
2017-12-27T01:45:48.708Z,11.73
2017-12-27T01:48:17.022Z,11.20
2017-12-27T01:50:45.295Z,10.43
2017-12-27T01:53:13.612Z,13.20
2017-12-27T01:55:41.976Z,12.93
2017-12-27T01:58:11.292Z,12.23
2017-12-27T02:00:39.565Z,13.87
2017-12-27T02:03:07.847Z,16.80
2017-12-27T02:05:36.128Z,16.73
2017-12-27T02:08:04.401Z,8.90
2017-12-27T02:10:32.749Z,11.80
2017-12-27T02:13:01.455Z,12.63
2017-12-27T02:15:30.797Z,15.07
2017-12-27T02:17:59.071Z,13.03
2017-12-27T02:20:27.339Z,12.67
2017-12-27T02:22:55.654Z,16.97
2017-12-27T02:25:23.943Z,12.33
2017-12-27T02:27:52.538Z,17.30
2017-12-27T02:30:20.820Z,14.77
2017-12-27T02:32:49.848Z,12.43
2017-12-27T02:35:18.138Z,16.97
2017-12-27T02:37:46.411Z,15.30
2017-12-27T02:40:25.330Z,12.00
2017-12-27T02:42:53.617Z,14.87
2017-12-27T02:45:22.496Z,11.60
2017-12-27T02:47:51.506Z,17.10
2017-12-27T02:50:19.777Z,19.40
2017-12-27T02:52:48.072Z,9.53
2017-12-27T02:55:17.124Z,13.30
2017-12-27T02:57:46.212Z,11.30
2017-12-27T03:00:15.239Z,10.80
2017-12-27T03:02:43.538Z,10.80
2017-12-27T03:05:11.852Z,11.70
2017-12-27T03:07:40.508Z,13.20
2017-12-27T03:10:08.789Z,18.40
2017-12-27T03:12:37.060Z,15.47
2017-12-27T03:15:05.342Z,9.63
2017-12-27T03:17:33.625Z,18.93
2017-12-27T03:20:02.235Z,10.70
2017-12-27T03:22:30.504Z,17.37
2017-12-27T03:24:58.804Z,14.23
2017-12-27T03:27:27.860Z,12.57
2017-12-27T03:29:56.131Z,15.83
2017-12-27T03:32:24.440Z,15.00
2017-12-27T03:34:52.710Z,19.00
2017-12-27T03:37:21.333Z,11.57
2017-12-27T03:39:50.388Z,16.80
2017-12-27T03:42:18.729Z,13.20
2017-12-27T03:44:47.073Z,10.30
2017-12-27T03:47:15.395Z,12.00
2017-12-27T03:49:43.684Z,10.93
2017-12-27T03:52:11.984Z,0.73
2017-12-27T03:54:40.551Z,0.70
2017-12-27T03:57:08.809Z,3.13
2017-12-27T03:59:37.400Z,1.37
2017-12-27T04:02:05.688Z,0.63
2017-12-27T04:04:33.986Z,0.70
2017-12-27T04:07:02.359Z,0.80
2017-12-27T04:09:30.639Z,1.57
2017-12-27T04:11:59.211Z,0.80
2017-12-27T04:14:27.531Z,0.77
2017-12-27T04:16:56.604Z,0.70
2017-12-27T04:19:24.888Z,0.90
2017-12-27T04:21:53.920Z,4.03
2017-12-27T04:24:22.216Z,0.73
2017-12-27T04:26:50.517Z,0.80
2017-12-27T04:29:18.802Z,0.60
2017-12-27T04:31:47.055Z,1.37
2017-12-27T04:34:15.358Z,0.70
2017-12-27T04:36:43.644Z,0.70
2017-12-27T04:39:12.004Z,0.70
2017-12-27T04:41:40.285Z,0.70
2017-12-27T04:44:08.571Z,2.30
2017-12-27T04:46:38.021Z,0.80
2017-12-27T04:49:06.330Z,0.60
2017-12-27T04:51:34.594Z,0.70
2017-12-27T04:54:03.109Z,5.07
2017-12-27T04:56:31.377Z,0.63
2017-12-27T04:58:59.717Z,1.63
2017-12-27T05:01:28.871Z,0.70
2017-12-27T05:03:57.476Z,1.23
2017-12-27T05:06:26.530Z,0.60
2017-12-27T05:08:54.837Z,0.70
2017-12-27T05:11:23.167Z,1.10
2017-12-27T05:13:51.471Z,0.70
2017-12-27T05:16:19.983Z,0.60
2017-12-27T05:18:48.256Z,1.93
2017-12-27T05:21:16.807Z,0.60
2017-12-27T05:23:45.111Z,0.75
2017-12-27T05:26:13.362Z,5.90
2017-12-27T05:28:45.124Z,2.60
2017-12-27T05:31:13.910Z,1.13
2017-12-27T05:33:42.735Z,0.60
2017-12-27T05:36:11.001Z,2.23
2017-12-27T05:38:39.564Z,2.03
2017-12-27T05:41:07.876Z,2.50
2017-12-27T05:43:36.141Z,0.80
2017-12-27T05:46:04.424Z,0.80
2017-12-27T05:48:33.499Z,1.30
2017-12-27T05:51:01.910Z,1.57
2017-12-27T05:53:30.173Z,4.00
2017-12-27T05:55:58.721Z,1.07
2017-12-27T05:58:26.972Z,6.83
2017-12-27T06:00:55.248Z,0.83
2017-12-27T06:03:23.557Z,1.80
2017-12-27T06:05:51.822Z,1.43
2017-12-27T06:08:20.479Z,1.10
2017-12-27T06:10:49.513Z,2.20
2017-12-27T06:13:17.768Z,2.83
2017-12-27T06:15:46.064Z,2.10
2017-12-27T06:18:14.316Z,1.37
2017-12-27T06:20:42.603Z,0.97
2017-12-27T06:23:10.870Z,1.00
2017-12-27T06:25:39.157Z,0.70
2017-12-27T06:28:07.495Z,1.90
2017-12-27T06:30:35.790Z,6.60
2017-12-27T06:33:04.093Z,1.10
2017-12-27T06:35:32.376Z,0.90
2017-12-27T06:38:01.048Z,0.73
2017-12-27T06:40:30.049Z,0.73
2017-12-27T06:42:58.308Z,1.00
2017-12-27T06:45:27.386Z,1.90
2017-12-27T06:47:55.644Z,1.67
2017-12-27T06:50:24.212Z,0.80
2017-12-27T06:52:52.485Z,0.97
2017-12-27T06:55:20.765Z,1.10
2017-12-27T06:57:49.098Z,0.63
2017-12-27T07:00:18.134Z,0.60
2017-12-27T07:02:46.740Z,6.10
2017-12-27T07:05:14.996Z,7.13
2017-12-27T07:07:43.273Z,1.10
2017-12-27T07:10:11.592Z,0.80
2017-12-27T07:12:39.968Z,0.77
2017-12-27T07:15:08.853Z,0.80
2017-12-27T07:17:37.107Z,0.80
2017-12-27T07:20:05.372Z,0.70
2017-12-27T07:22:33.678Z,1.87
2017-12-27T07:25:01.957Z,0.97
2017-12-27T07:27:30.542Z,1.47
2017-12-27T07:29:58.802Z,1.30
2017-12-27T07:32:27.061Z,0.80
2017-12-27T07:34:55.361Z,5.80
2017-12-27T07:37:23.671Z,1.10
2017-12-27T07:39:51.967Z,0.70
2017-12-27T07:42:20.996Z,0.70
2017-12-27T07:44:49.559Z,0.73
2017-12-27T07:47:19.523Z,0.90
2017-12-27T07:49:47.792Z,1.93
2017-12-27T07:52:16.082Z,0.83
2017-12-27T07:54:44.372Z,0.90
2017-12-27T07:57:13.010Z,4.23
2017-12-27T07:59:41.273Z,0.70
2017-12-27T08:02:09.558Z,0.90
2017-12-27T08:04:37.848Z,6.23
2017-12-27T08:07:06.116Z,7.37
2017-12-27T08:09:34.660Z,7.77
2017-12-27T08:12:02.904Z,4.70
2017-12-27T08:14:31.339Z,9.77
2017-12-27T08:17:00.374Z,5.60
2017-12-27T08:19:28.671Z,7.47
2017-12-27T08:21:56.990Z,5.87
2017-12-27T08:24:26.057Z,7.13
2017-12-27T08:26:54.650Z,7.60
2017-12-27T08:29:22.968Z,10.00
2017-12-27T08:31:51.242Z,8.30
2017-12-27T08:34:19.526Z,5.60
2017-12-27T08:36:47.792Z,7.13
2017-12-27T08:39:16.134Z,8.73
2017-12-27T08:41:44.404Z,8.03
2017-12-27T08:44:13.069Z,5.00
2017-12-27T08:46:41.348Z,6.47
2017-12-27T08:49:10.792Z,6.80
2017-12-27T08:51:39.120Z,9.70
2017-12-27T08:54:07.392Z,5.73
2017-12-27T08:56:35.686Z,8.17
2017-12-27T08:59:03.948Z,7.60
2017-12-27T09:01:32.507Z,12.10
2017-12-27T09:04:01.537Z,13.87
2017-12-27T09:06:29.821Z,11.70
2017-12-27T09:08:58.125Z,10.23
2017-12-27T09:11:26.409Z,9.67
2017-12-27T09:13:54.726Z,11.50
2017-12-27T09:16:26.624Z,12.30
2017-12-27T09:18:54.954Z,11.60
2017-12-27T09:21:23.206Z,14.23
2017-12-27T09:23:54.344Z,9.50
2017-12-27T09:26:22.644Z,12.17
2017-12-27T09:28:51.670Z,17.40
2017-12-27T09:31:19.974Z,15.10
2017-12-27T09:33:48.604Z,12.47
2017-12-27T09:36:17.675Z,13.37
2017-12-27T09:38:45.933Z,11.40
2017-12-27T09:41:14.480Z,14.30
2017-12-27T09:43:43.550Z,15.27
2017-12-27T09:46:12.596Z,19.37
2017-12-27T09:48:40.891Z,16.10
2017-12-27T09:51:09.838Z,13.83
2017-12-27T09:53:38.143Z,14.50
2017-12-27T09:56:06.441Z,16.77
2017-12-27T09:58:34.720Z,11.57
2017-12-27T10:01:03.021Z,20.03
2017-12-27T10:03:31.298Z,12.50
2017-12-27T10:05:59.615Z,15.67
2017-12-27T10:08:27.908Z,13.77
2017-12-27T10:10:56.187Z,16.57
2017-12-27T10:13:24.465Z,14.07
2017-12-27T10:15:52.758Z,13.03
2017-12-27T10:18:21.319Z,15.87
2017-12-27T10:20:49.644Z,18.87
2017-12-27T10:23:18.863Z,16.83
2017-12-27T10:25:48.655Z,17.80
2017-12-27T10:28:17.829Z,16.30
2017-12-27T10:30:46.148Z,5.03
2017-12-27T10:33:18.078Z,4.70
2017-12-27T10:35:46.414Z,8.10
2017-12-27T10:38:14.720Z,6.63
2017-12-27T10:40:43.914Z,4.10
2017-12-27T10:43:12.188Z,1.33
2017-12-27T10:45:40.493Z,1.00
2017-12-27T10:48:08.745Z,4.67
2017-12-27T10:50:37.019Z,7.67
2017-12-27T10:53:05.316Z,5.63
2017-12-27T10:55:33.624Z,4.67
2017-12-27T10:58:01.988Z,3.00
2017-12-27T11:00:31.048Z,1.70
2017-12-27T11:02:59.407Z,2.03
2017-12-27T11:05:27.667Z,9.37
2017-12-27T11:07:55.935Z,1.83
2017-12-27T11:10:24.220Z,4.70
2017-12-27T11:12:53.491Z,5.77
2017-12-27T11:15:21.769Z,3.93
2017-12-27T11:17:50.036Z,2.33
2017-12-27T11:20:18.534Z,4.27
2017-12-27T11:22:46.793Z,3.10
2017-12-27T11:25:15.078Z,2.40
2017-12-27T11:27:43.830Z,2.80
2017-12-27T11:30:12.130Z,1.87
2017-12-27T11:32:40.509Z,2.60
2017-12-27T11:35:08.791Z,7.93
2017-12-27T11:37:37.140Z,4.93
2017-12-27T11:40:06.160Z,1.93
2017-12-27T11:42:34.425Z,6.20
2017-12-27T11:45:02.739Z,10.50
2017-12-27T11:47:31.016Z,16.27
2017-12-27T11:49:59.510Z,18.73
2017-12-27T11:52:27.791Z,9.27
2017-12-27T11:54:56.233Z,9.60
2017-12-27T11:57:24.633Z,14.30
2017-12-27T11:59:52.872Z,13.00
2017-12-27T12:02:21.177Z,17.90
2017-12-27T12:04:50.533Z,16.07
2017-12-27T12:07:19.600Z,14.93
2017-12-27T12:09:47.902Z,15.30
2017-12-27T12:12:16.203Z,17.30
2017-12-27T12:14:44.482Z,17.47
2017-12-27T12:17:12.773Z,16.80
2017-12-27T12:19:41.264Z,14.50
2017-12-27T12:22:10.471Z,10.10
2017-12-27T12:24:38.758Z,15.63
2017-12-27T12:27:07.858Z,17.40
2017-12-27T12:29:36.165Z,16.57
2017-12-27T12:32:05.221Z,13.00
2017-12-27T12:34:33.507Z,14.30
2017-12-27T12:37:02.204Z,12.10
2017-12-27T12:39:30.686Z,16.47
2017-12-27T12:41:59.019Z,14.80
2017-12-27T12:44:27.647Z,13.70
2017-12-27T12:46:56.594Z,15.27
2017-12-27T12:49:24.847Z,17.83
2017-12-27T12:51:53.254Z,17.27
2017-12-27T12:54:21.594Z,13.90
2017-12-27T12:56:51.075Z,20.47
2017-12-27T12:59:19.351Z,15.20
2017-12-27T13:01:47.631Z,19.47
2017-12-27T13:04:16.516Z,18.67
2017-12-27T13:06:44.932Z,16.33
2017-12-27T13:09:14.010Z,16.30
2017-12-27T13:11:42.344Z,13.77
2017-12-27T13:14:10.619Z,21.30
2017-12-27T13:16:38.924Z,12.60
2017-12-27T13:19:07.481Z,14.33
2017-12-27T13:21:35.843Z,17.67
2017-12-27T13:24:04.112Z,16.67
2017-12-27T13:26:34.057Z,16.80
2017-12-27T13:29:02.392Z,17.93
2017-12-27T13:31:30.649Z,15.17
2017-12-27T13:33:59.721Z,21.40
2017-12-27T13:36:29.245Z,15.70
2017-12-27T13:38:57.667Z,18.60
2017-12-27T13:41:26.729Z,18.63
2017-12-27T13:43:55.015Z,12.80
2017-12-27T13:46:23.314Z,14.63
2017-12-27T13:48:51.594Z,16.67
2017-12-27T13:51:19.890Z,17.40
2017-12-27T13:53:49.270Z,16.73
2017-12-27T13:56:17.579Z,15.87
2017-12-27T13:58:45.853Z,15.63
2017-12-27T14:01:14.129Z,17.10
2017-12-27T14:03:42.478Z,13.90
2017-12-27T14:06:10.748Z,17.87
2017-12-27T14:08:39.128Z,14.90
2017-12-27T14:11:08.239Z,14.40
2017-12-27T14:13:36.523Z,17.53
2017-12-27T14:16:04.829Z,19.27
2017-12-27T14:18:33.145Z,16.83
2017-12-27T14:21:01.453Z,15.67
2017-12-27T14:23:29.729Z,15.77
2017-12-27T14:25:58.061Z,14.40
2017-12-27T14:28:26.320Z,15.53
2017-12-27T14:30:54.597Z,17.00
2017-12-27T14:33:22.944Z,20.50
2017-12-27T14:35:51.212Z,22.73
2017-12-27T14:38:19.507Z,16.60
2017-12-27T14:40:48.548Z,21.33
2017-12-27T14:43:16.873Z,18.27
2017-12-27T14:45:45.157Z,18.93
2017-12-27T14:48:14.199Z,20.90
2017-12-27T14:50:42.500Z,13.97
2017-12-27T14:53:10.788Z,18.40
2017-12-27T14:55:39.184Z,17.23
2017-12-27T14:58:07.449Z,20.07
2017-12-27T15:00:35.757Z,10.80
2017-12-27T15:03:04.831Z,26.37
2017-12-27T15:05:33.513Z,14.30
2017-12-27T15:08:01.756Z,18.60
2017-12-27T15:10:30.067Z,16.50
2017-12-27T15:12:58.349Z,15.10
2017-12-27T15:15:26.622Z,20.33
2017-12-27T15:17:55.152Z,17.10
2017-12-27T15:20:23.430Z,19.27
2017-12-27T15:22:51.728Z,18.97
2017-12-27T15:25:19.987Z,20.23
2017-12-27T15:27:48.280Z,13.23
2017-12-27T15:30:16.581Z,18.23
2017-12-27T15:32:44.881Z,20.90
2017-12-27T15:35:13.208Z,21.30
2017-12-27T15:37:41.486Z,16.23
2017-12-27T15:40:09.816Z,13.70
2017-12-27T15:42:38.092Z,23.37
2017-12-27T15:45:07.183Z,25.43
2017-12-27T15:47:35.476Z,19.37
2017-12-27T15:50:04.534Z,22.10
2017-12-27T15:52:32.843Z,15.43
2017-12-27T15:55:01.121Z,17.80
2017-12-27T15:57:29.416Z,21.57
2017-12-27T16:00:01.484Z,22.13
2017-12-27T16:02:30.558Z,15.23
2017-12-27T16:04:58.840Z,17.33
2017-12-27T16:07:27.183Z,18.50
2017-12-27T16:09:55.468Z,18.27
2017-12-27T16:12:23.764Z,18.10
2017-12-27T16:14:52.124Z,22.23
2017-12-27T16:17:21.245Z,21.37
2017-12-27T16:19:49.631Z,23.03
2017-12-27T16:22:17.914Z,23.57
2017-12-27T16:24:46.233Z,20.33
2017-12-27T16:27:14.501Z,26.50
2017-12-27T16:29:42.798Z,22.13
2017-12-27T16:32:11.106Z,20.30
2017-12-27T16:34:39.388Z,22.93
2017-12-27T16:37:07.737Z,19.27
2017-12-27T16:39:35.973Z,20.53
2017-12-27T16:42:05.345Z,21.53
2017-12-27T16:44:33.629Z,26.93
2017-12-27T16:47:01.902Z,24.20
2017-12-27T16:49:30.207Z,21.07
2017-12-27T16:51:59.261Z,20.37
2017-12-27T16:54:27.605Z,21.43
2017-12-27T16:56:55.884Z,20.43
2017-12-27T16:59:24.265Z,15.77
2017-12-27T17:01:52.590Z,22.83
2017-12-27T17:04:21.293Z,20.83
2017-12-27T17:06:50.496Z,19.47
2017-12-27T17:09:18.794Z,15.53
2017-12-27T17:11:47.128Z,17.70
2017-12-27T17:14:15.388Z,22.47
2017-12-27T17:16:43.715Z,16.90
2017-12-27T17:19:12.781Z,19.00
2017-12-27T17:21:41.134Z,20.27
2017-12-27T17:24:09.428Z,22.23
2017-12-27T17:26:37.758Z,17.97
2017-12-27T17:29:06.071Z,20.80
2017-12-27T17:31:34.398Z,19.03
2017-12-27T17:34:03.497Z,21.80
2017-12-27T17:36:31.778Z,19.50
2017-12-27T17:39:00.835Z,20.37
2017-12-27T17:41:29.165Z,18.53
2017-12-27T17:43:57.498Z,19.53
2017-12-27T17:46:25.819Z,22.00
2017-12-27T17:48:54.892Z,17.83
2017-12-27T17:51:23.210Z,20.20
2017-12-27T17:53:51.516Z,19.33
2017-12-27T17:56:19.825Z,17.33
2017-12-27T17:58:48.116Z,17.07
2017-12-27T18:01:17.196Z,16.27
2017-12-27T18:03:45.531Z,22.17
2017-12-27T18:06:13.792Z,17.10
2017-12-27T18:08:42.106Z,17.27
2017-12-27T18:11:10.373Z,19.07
2017-12-27T18:13:38.844Z,19.40
2017-12-27T18:16:08.784Z,20.40
2017-12-27T18:18:37.054Z,18.87
2017-12-27T18:21:05.378Z,21.63
2017-12-27T18:23:34.427Z,20.93
2017-12-27T18:26:02.734Z,17.20
2017-12-27T18:28:31.396Z,18.20
2017-12-27T18:30:59.730Z,22.50
2017-12-27T18:33:28.042Z,19.27
2017-12-27T18:35:56.393Z,23.80
2017-12-27T18:38:25.485Z,22.70
2017-12-27T18:40:53.785Z,20.07
2017-12-27T18:43:22.110Z,17.30
2017-12-27T18:45:50.400Z,18.50
2017-12-27T18:48:19.496Z,22.30
2017-12-27T18:50:47.775Z,18.60
2017-12-27T18:53:16.086Z,20.20
2017-12-27T18:55:44.364Z,20.83
2017-12-27T18:58:12.673Z,21.13
2017-12-27T19:00:43.275Z,18.70
2017-12-27T19:03:14.598Z,27.87
2017-12-27T19:05:43.698Z,24.57
2017-12-27T19:08:12.127Z,17.40
2017-12-27T19:10:43.820Z,20.73
2017-12-27T19:13:12.084Z,19.53
2017-12-27T19:15:40.381Z,18.93
2017-12-27T19:18:09.476Z,16.03
2017-12-27T19:20:37.755Z,21.57
2017-12-27T19:23:06.853Z,21.50
2017-12-27T19:25:35.165Z,24.17
2017-12-27T19:28:03.462Z,21.63
2017-12-27T19:30:31.750Z,21.40
2017-12-27T19:33:00.093Z,19.43
2017-12-27T19:35:28.370Z,19.90
2017-12-27T19:37:56.656Z,20.37
2017-12-27T19:40:24.962Z,22.93
2017-12-27T19:42:53.240Z,16.80
2017-12-27T19:45:21.758Z,20.50
2017-12-27T19:47:50.078Z,18.90
2017-12-27T19:50:18.379Z,22.13
2017-12-27T19:52:46.654Z,23.77
2017-12-27T19:55:14.934Z,18.00
2017-12-27T19:57:43.261Z,20.50
2017-12-27T20:00:11.616Z,20.43
2017-12-27T20:02:40.745Z,17.90
2017-12-27T20:05:09.083Z,18.13
2017-12-27T20:07:37.380Z,14.50
2017-12-27T20:10:06.479Z,19.60
2017-12-27T20:12:38.620Z,18.67
2017-12-27T20:15:08.799Z,17.73
2017-12-27T20:17:37.076Z,17.73
2017-12-27T20:20:05.378Z,21.00
2017-12-27T20:22:34.417Z,18.80
2017-12-27T20:25:02.738Z,18.30
2017-12-27T20:27:31.085Z,16.53
2017-12-27T20:30:00.212Z,17.17
2017-12-27T20:32:28.649Z,23.40
2017-12-27T20:34:57.773Z,19.20
2017-12-27T20:37:26.230Z,21.80
2017-12-27T20:39:54.505Z,24.10
2017-12-27T20:42:22.821Z,17.80
2017-12-27T20:44:51.143Z,18.53
2017-12-27T20:47:19.452Z,16.73
2017-12-27T20:49:48.499Z,22.37
2017-12-27T20:52:16.844Z,21.23
2017-12-27T20:54:45.134Z,21.97
2017-12-27T20:57:13.507Z,20.27
2017-12-27T20:59:41.775Z,17.30
2017-12-27T21:02:10.086Z,17.60
2017-12-27T21:04:38.424Z,20.00
2017-12-27T21:07:07.497Z,16.90
2017-12-27T21:09:36.600Z,20.97
2017-12-27T21:12:04.873Z,17.93
2017-12-27T21:14:33.176Z,17.00
2017-12-27T21:17:02.470Z,22.50
2017-12-27T21:19:31.561Z,16.70
2017-12-27T21:21:59.930Z,16.67
2017-12-27T21:24:28.740Z,18.43
2017-12-27T21:26:57.054Z,17.70
2017-12-27T21:29:25.321Z,19.17
2017-12-27T21:31:53.645Z,16.90
2017-12-27T21:34:21.945Z,16.40
2017-12-27T21:36:50.294Z,22.90
2017-12-27T21:39:18.591Z,15.00
2017-12-27T21:41:46.879Z,20.93
2017-12-27T21:44:15.213Z,20.83
2017-12-27T21:46:43.470Z,18.10
2017-12-27T21:49:17.343Z,16.83
2017-12-27T21:51:46.441Z,17.33
2017-12-27T21:54:15.548Z,16.07
2017-12-27T21:56:44.633Z,14.60
2017-12-27T21:59:18.667Z,19.73
2017-12-27T22:01:47.713Z,22.60
2017-12-27T22:04:16.073Z,18.67
2017-12-27T22:06:44.501Z,16.10
2017-12-27T22:09:12.771Z,13.37
2017-12-27T22:11:41.069Z,15.53
2017-12-27T22:14:10.125Z,16.13
2017-12-27T22:16:40.193Z,17.97
2017-12-27T22:19:09.566Z,20.00
2017-12-27T22:21:37.874Z,18.30
2017-12-27T22:24:06.209Z,21.23
2017-12-27T22:26:34.521Z,15.60
2017-12-27T22:29:03.603Z,19.73
2017-12-27T22:31:31.935Z,16.27
2017-12-27T22:34:00.238Z,18.60
2017-12-27T22:36:28.532Z,18.53
2017-12-27T22:38:56.874Z,16.17
2017-12-27T22:41:25.241Z,17.27
2017-12-27T22:43:53.519Z,19.80
2017-12-27T22:46:21.823Z,20.43
2017-12-27T22:48:50.132Z,18.47
2017-12-27T22:51:18.440Z,17.10
2017-12-27T22:53:46.719Z,20.10
2017-12-27T22:56:15.035Z,19.90
2017-12-27T22:58:43.355Z,20.20
2017-12-27T23:01:12.424Z,20.73
2017-12-27T23:03:40.737Z,21.53
2017-12-27T23:06:09.043Z,24.23
2017-12-27T23:08:37.350Z,20.50
2017-12-27T23:11:05.669Z,25.20
2017-12-27T23:13:34.771Z,18.37
2017-12-27T23:16:03.126Z,20.90
2017-12-27T23:18:31.376Z,17.07
2017-12-27T23:20:59.683Z,16.50
2017-12-27T23:23:27.950Z,19.37
2017-12-27T23:25:56.400Z,20.60
2017-12-27T23:28:24.664Z,20.57
2017-12-27T23:30:52.961Z,19.90
2017-12-27T23:33:21.235Z,20.60
2017-12-27T23:35:49.570Z,19.07
2017-12-27T23:38:18.637Z,24.27
2017-12-27T23:40:46.964Z,19.87
2017-12-27T23:43:15.245Z,21.00
2017-12-27T23:45:43.528Z,22.50
2017-12-27T23:48:11.848Z,20.67
2017-12-27T23:50:40.126Z,20.53
2017-12-27T23:53:08.477Z,18.87
2017-12-27T23:55:36.800Z,20.60
2017-12-27T23:58:05.150Z,22.33
